ヘウノラ国際空港の過去48時間の天気

ヘウノラ国際空港 (Hewanorra International Airport)

現在時刻: 5/25 22:06 AST (5/26 02:06 UTC) 以下の時間は現地時間です。

過去48時間のMETAR気象情報
時間 風向 風速(m/s) 視程 気温(℃) 湿度(%) 気圧(hPa) 天気現象
25 21:00 東北東 9 10km以上 27 79 1016
25 20:00 8 10km以上 28 70 1016
25 19:00 8 10km以上 27 79 1015
25 18:00 9 10km以上 29 74 1015
25 17:00 8 10km以上 29 70 1014
25 16:00 8 10km以上 30 70 1014
25 14:00 東南東 10 10km以上 31 66 1015
25 13:00 東南東 9 10km以上 31 66 1016
25 12:00 8 10km以上 30 70 1016 弱いしゅう雨
25 11:00 9 10km以上 31 66 1016
25 10:00 10 10km以上 30 66 1016
25 09:00 10 10km以上 30 70 1016 弱いしゅう雨
25 07:00 8 10km以上 27 79 1015
25 06:00 8 10km以上 27 79 1015
25 05:00 8 10km以上 28 79 1013
25 03:00 7 10km以上 27 79 1014
25 02:00 7 10km以上 27 84 1014
25 01:00 8 10km以上 27 79 1014
25 00:00 7 10km以上 27 79 1015
24 23:00 8 10km以上 27 79 1016
24 22:00 8 10km以上 27 84 1015
24 21:00 8 10km以上 27 84 1015
24 20:00 8 10km以上 27 84 1014 弱いしゅう雨
24 19:00 9 10km以上 27 79 1014
24 18:00 7 10km以上 27 79 1013 弱い雨
24 17:00 8 10km以上 27 84 1013 弱いしゅう雨
24 16:00 8 10km以上 28 74 1014 弱いしゅう雨
24 15:00 8 10km以上 28 66 1014 周辺でしゅう雨
24 14:00 9 10km以上 31 62 1014 周辺でしゅう雨
24 13:00 9 10km以上 31 62 1015
24 12:00 8 10km以上 30 66 1016
24 11:00 9 10km以上 30 62 1016
24 10:00 8 10km以上 30 66 1016
24 09:00 8 10km以上 30 66 1016
24 08:00 9 10km以上 28 74 1016
24 07:00 9 10km以上 28 74 1015
24 06:00 9 10km以上 27 79 1015
24 05:00 9 10km以上 27 79 1014
24 04:00 10 10km以上 27 79 1014
24 02:00 9 10km以上 27 79 1014
24 01:00 10 10km以上 27 79 1014
24 00:00 東北東 8 10km以上 27 79 1015
23 23:00 東北東 8 10km以上 27 79 1015
TLPL 260100Z 07017KT 9999 SCT025 SCT044 27/23 Q1016
TLPL 260000Z 09015KT 9999 BKN025 SCT044 28/22 Q1016 NOSIG
TLPL 252300Z 09016KT 9999 SCT024 BKN044 27/23 Q1015 NOSIG
TLPL 252200Z 09017KT 9999 SCT025 BKN046 29/24 Q1015 NOSIG
TLPL 252100Z 09016KT 9999 FEW026 29/23 Q1014 NOSIG
TLPL 252000Z 10015KT 9999 SCT026 30/24 Q1014 NOSIG
TLPL 251800Z 11020KT 9999 FEW028 SCT048 31/24 Q1015 NOSIG
TLPL 251700Z 11018KT 9999 SCT027 BKN048 31/24 Q1016 NOSIG
TLPL 251600Z 10016KT 9999 -SHRA SCT026 SCT048 30/24 Q1016 NOSIG
TLPL 251500Z 10018KT 9999 FEW029 31/24 Q1016 NOSIG
TLPL 251400Z 10019KT 9999 FEW029 30/23 Q1016 NOSIG
TLPL 251300Z 10019KT 9999 -SHRA BKN026 30/24 Q1016 NOSIG
TLPL 251100Z 10016KT 9999 FEW020 SCT042 27/23 Q1015 NOSIG
TLPL 251000Z 09016KT 9999 FEW025 27/23 Q1015 NOSIG
TLPL 250900Z 09016KT 9999 SCT024 28/24 Q1013 NOSIG
TLPL 250700Z 08013KT 9999 FEW024 27/23 Q1014 NOSIG
TLPL 250600Z 08014KT 9999 SCT024 27/24 Q1014 NOSIG
TLPL 250500Z 08015KT 9999 SCT024 27/23 Q1014 NOSIG
TLPL 250400Z 09014KT 9999 SCT024 BKN042 27/23 Q1015 NOSIG
TLPL 250300Z 09016KT 9999 SCT024 BKN042 27/23 Q1016 NOSIG
TLPL 250200Z 10015KT 9999 SCT024 BKN042 27/24 Q1015 NOSIG
TLPL 250100Z 09015KT 9999 SCT024 BKN042 27/24 Q1015 NOSIG
TLPL 250000Z 08015KT 9999 -SHRA SCT023 BKN042 27/24 Q1014 NOSIG
TLPL 242300Z 08017KT 9999 FEW024 BKN043 27/23 Q1014 NOSIG
TLPL 242200Z 08014KT 9999 -RA FEW024 BKN044 27/23 Q1013 NOSIG
TLPL 242100Z 08016KT 9999 -SHRA FEW024 27/24 Q1013 NOSIG
TLPL 242000Z 09015KT 9999 -SHRA FEW016CB 28/23 Q1014 TEMPO SHRA
TLPL 241900Z 10016KT 9999 VCSH FEW017CB SCT024 28/21 Q1014 TEMPO SHRA
TLPL 241800Z 09018KT 9999 VCSH FEW026 31/23 Q1014 NOSIG
TLPL 241700Z 08017KT 9999 FEW029 31/23 Q1015 NOSIG
TLPL 241600Z 08016KT 9999 FEW027 30/23 Q1016 NOSIG
TLPL 241500Z 10017KT 9999 FEW028 BKN048 30/22 Q1016 NOSIG
TLPL 241400Z COR 09016KT 9999 FEW027 BKN046 30/23 Q1016 NOSIG
TLPL 241300Z 09016KT 9999 FEW026 BKN046 30/23 Q1016 NOSIG
TLPL 241200Z 10017KT 9999 FEW026 28/23 Q1016 NOSIG
TLPL 241100Z 09017KT 9999 SCT025 28/23 Q1015 NOSIG
TLPL 241000Z 09017KT 9999 FEW024 27/23 Q1015 NOSIG
TLPL 240900Z 10017KT 9999 FEW023 27/23 Q1014 NOSIG
TLPL 240800Z 09019KT 9999 SCT025 SCT040 27/23 Q1014 NOSIG
TLPL 240600Z 09017KT 9999 SCT025 27/23 Q1014 NOSIG
TLPL 240500Z 09019KT 9999 FEW025 27/23 Q1014 NOSIG
TLPL 240400Z 07016KT 9999 SCT026 27/23 Q1015 NOSIG
TLPL 240300Z 07016KT 9999 SCT026 27/23 Q1015 NOSIG